createdAt,value
2019-04-16T00:02:18.500Z,58.77
2019-04-16T00:04:43.515Z,59.25
2019-04-16T00:07:12.666Z,59.59
2019-04-16T00:09:41.296Z,60.06
2019-04-16T00:12:11.628Z,59.63
2019-04-16T00:14:42.517Z,59.64
2019-04-16T00:17:09.192Z,59.97
2019-04-16T00:19:36.965Z,60.02
2019-04-16T00:22:05.570Z,59.43
2019-04-16T00:24:35.077Z,59.10
2019-04-16T00:27:01.676Z,59.25
2019-04-16T00:29:33.596Z,59.34
2019-04-16T00:32:00.354Z,59.39
2019-04-16T00:34:28.484Z,59.41
2019-04-16T00:36:59.899Z,59.39
2019-04-16T00:39:28.796Z,59.04
2019-04-16T00:41:55.759Z,58.81
2019-04-16T00:44:26.298Z,58.94
2019-04-16T00:46:55.092Z,58.81
2019-04-16T00:49:26.604Z,58.81
2019-04-16T00:51:56.193Z,59.02
2019-04-16T00:54:24.300Z,59.32
2019-04-16T00:56:51.265Z,59.34
2019-04-16T00:59:18.351Z,59.14
2019-04-16T01:01:47.768Z,59.10
2019-04-16T01:04:17.223Z,59.52
2019-04-16T01:06:47.698Z,59.62
2019-04-16T01:09:16.588Z,59.23
2019-04-16T01:11:46.060Z,59.27
2019-04-16T01:14:13.482Z,59.17
2019-04-16T01:16:40.098Z,59.37
2019-04-16T01:19:09.500Z,59.56
2019-04-16T01:21:35.475Z,59.60
2019-04-16T01:24:02.090Z,59.63
2019-04-16T01:26:28.994Z,59.36
2019-04-16T01:29:02.338Z,59.22
2019-04-16T01:31:25.798Z,59.09
2019-04-16T01:34:04.465Z,59.06
2019-04-16T01:36:22.836Z,58.86
2019-04-16T01:38:49.980Z,59.17
2019-04-16T01:41:21.715Z,59.17
2019-04-16T01:43:47.901Z,59.24
2019-04-16T01:46:16.643Z,59.25
2019-04-16T01:48:43.869Z,59.27
2019-04-16T01:51:12.626Z,59.78
2019-04-16T01:53:39.430Z,60.22
2019-04-16T01:56:06.285Z,60.69
2019-04-16T01:58:33.864Z,60.11
2019-04-16T02:01:01.339Z,59.68
2019-04-16T02:03:28.207Z,59.46
2019-04-16T02:05:55.593Z,59.87
2019-04-16T02:08:22.543Z,60.16
2019-04-16T02:10:49.205Z,60.29
2019-04-16T02:13:16.021Z,60.77
2019-04-16T02:15:42.954Z,61.19
2019-04-16T02:18:09.619Z,61.41
2019-04-16T02:20:39.322Z,61.06
2019-04-16T02:23:05.966Z,61.09
2019-04-16T02:25:32.748Z,60.91
2019-04-16T02:27:59.373Z,60.61
2019-04-16T02:30:26.039Z,60.50
2019-04-16T02:32:52.636Z,60.62
2019-04-16T02:35:19.360Z,60.73
2019-04-16T02:37:45.984Z,60.91
2019-04-16T02:40:17.216Z,60.88
2019-04-16T02:42:41.250Z,60.98
2019-04-16T02:45:08.436Z,61.34
2019-04-16T02:47:51.512Z,61.34
2019-04-16T02:50:18.533Z,61.64
2019-04-16T02:52:50.218Z,61.87
2019-04-16T02:55:13.796Z,61.86
2019-04-16T02:57:40.910Z,62.02
2019-04-16T03:00:07.887Z,61.80
2019-04-16T03:02:34.499Z,61.55
2019-04-16T03:05:01.719Z,61.14
2019-04-16T03:07:28.493Z,61.30
2019-04-16T03:10:01.608Z,61.71
2019-04-16T03:12:23.744Z,62.11
2019-04-16T03:14:50.365Z,62.23
2019-04-16T03:17:16.979Z,62.43
2019-04-16T03:19:43.934Z,62.37
2019-04-16T03:22:10.531Z,61.83
2019-04-16T03:24:37.561Z,61.21
2019-04-16T03:27:05.916Z,61.22
2019-04-16T03:29:32.802Z,61.57
2019-04-16T03:31:59.804Z,61.62
2019-04-16T03:34:26.883Z,61.51
2019-04-16T03:36:53.510Z,61.21
2019-04-16T03:39:20.185Z,61.03
2019-04-16T03:41:47.287Z,61.30
2019-04-16T03:44:13.940Z,60.89
2019-04-16T03:46:46.292Z,60.79
2019-04-16T03:49:08.889Z,61.04
2019-04-16T03:51:36.573Z,61.14
2019-04-16T03:54:05.003Z,61.36
2019-04-16T03:56:32.098Z,61.23
2019-04-16T03:58:58.755Z,61.36
2019-04-16T04:01:25.750Z,61.47
2019-04-16T04:03:57.070Z,61.27
2019-04-16T04:06:21.023Z,61.13
2019-04-16T04:08:48.996Z,61.17
2019-04-16T04:11:16.170Z,61.03
2019-04-16T04:13:42.864Z,61.17
2019-04-16T04:16:09.471Z,60.80
2019-04-16T04:18:42.960Z,60.61
2019-04-16T04:21:08.078Z,60.76
2019-04-16T04:23:34.935Z,60.45
2019-04-16T04:26:01.964Z,60.55
2019-04-16T04:28:28.900Z,60.32
2019-04-16T04:30:57.647Z,60.11
2019-04-16T04:33:24.204Z,59.98
2019-04-16T04:35:52.057Z,60.02
2019-04-16T04:38:21.051Z,59.86
2019-04-16T04:40:50.425Z,59.83
2019-04-16T04:43:16.235Z,60.09
2019-04-16T04:45:42.928Z,60.84
2019-04-16T04:48:11.667Z,60.88
2019-04-16T04:50:38.157Z,60.32
2019-04-16T04:53:04.764Z,60.48
2019-04-16T04:55:31.521Z,60.39
2019-04-16T04:58:02.519Z,60.34
2019-04-16T05:00:26.606Z,60.10
2019-04-16T05:02:53.227Z,59.62
2019-04-16T05:05:24.258Z,58.81
2019-04-16T05:07:48.326Z,58.79
2019-04-16T05:10:15.086Z,59.52
2019-04-16T05:12:41.781Z,59.41
2019-04-16T05:15:08.365Z,58.66
2019-04-16T05:17:35.455Z,58.01
2019-04-16T05:20:03.361Z,57.59
2019-04-16T05:22:33.182Z,56.72
2019-04-16T05:25:01.424Z,56.33
2019-04-16T05:27:29.473Z,56.17
2019-04-16T05:29:57.065Z,55.49
2019-04-16T05:32:25.901Z,55.17
2019-04-16T05:34:52.075Z,54.48
2019-04-16T05:37:19.833Z,54.01
2019-04-16T05:39:47.659Z,53.97
2019-04-16T05:42:14.247Z,53.94
2019-04-16T05:44:41.164Z,54.32
2019-04-16T05:47:08.281Z,53.85
2019-04-16T05:49:34.938Z,53.31
2019-04-16T05:54:47.526Z,52.04
2019-04-16T05:57:14.295Z,50.89
2019-04-16T05:59:40.932Z,50.05
2019-04-16T06:02:07.695Z,50.43
2019-04-16T06:04:34.481Z,50.68
2019-04-16T06:07:03.724Z,49.70
2019-04-16T06:09:29.458Z,49.95
2019-04-16T06:11:56.221Z,50.40
2019-04-16T06:14:25.720Z,49.81
2019-04-16T06:16:53.380Z,48.28
2019-04-16T06:19:19.845Z,49.70
2019-04-16T06:21:46.479Z,49.70
2019-04-16T06:24:13.304Z,48.37
2019-04-16T06:26:39.935Z,48.81
2019-04-16T06:29:06.573Z,48.67
2019-04-16T06:31:33.457Z,47.24
2019-04-16T06:34:00.345Z,47.52
2019-04-16T06:36:26.987Z,47.11
2019-04-16T06:38:54.989Z,46.68
2019-04-16T06:41:22.247Z,46.79
2019-04-16T06:43:48.872Z,45.75
2019-04-16T06:46:15.538Z,46.36
2019-04-16T06:48:45.597Z,45.53
2019-04-16T06:51:12.424Z,45.57
2019-04-16T06:53:39.026Z,45.78
2019-04-16T06:56:08.812Z,45.71
2019-04-16T06:58:50.197Z,45.00
2019-04-16T07:01:06.790Z,44.75
2019-04-16T07:03:33.745Z,44.96
2019-04-16T07:06:18.414Z,44.73
2019-04-16T07:08:49.814Z,44.38
2019-04-16T07:11:13.933Z,43.99
2019-04-16T07:13:42.206Z,43.35
2019-04-16T07:16:09.162Z,43.54
2019-04-16T07:18:38.737Z,43.66
2019-04-16T07:21:04.869Z,43.08
2019-04-16T07:23:31.619Z,43.58
2019-04-16T07:25:58.189Z,42.74
2019-04-16T07:28:26.487Z,42.37
2019-04-16T07:30:53.717Z,42.07
2019-04-16T07:33:20.234Z,41.04
2019-04-16T07:35:46.789Z,40.35
2019-04-16T07:40:53.606Z,38.62
2019-04-16T07:43:20.298Z,38.63
2019-04-16T07:45:47.526Z,37.83
2019-04-16T07:48:14.865Z,36.51
2019-04-16T07:50:41.515Z,37.36
2019-04-16T07:53:13.554Z,37.20
2019-04-16T07:55:40.104Z,37.81
2019-04-16T07:58:06.987Z,39.09
2019-04-16T08:00:41.267Z,35.42
2019-04-16T08:03:07.595Z,35.85
2019-04-16T08:05:34.491Z,34.53
2019-04-16T08:08:01.030Z,34.51
2019-04-16T08:10:28.312Z,34.53
2019-04-16T08:13:00.572Z,33.90
2019-04-16T08:15:27.794Z,35.88
2019-04-16T08:17:54.708Z,36.17
2019-04-16T08:20:24.030Z,34.88
2019-04-16T08:22:50.587Z,35.00
2019-04-16T08:25:17.134Z,34.23
2019-04-16T08:27:47.225Z,33.89
2019-04-16T08:30:16.902Z,35.42
2019-04-16T08:32:45.806Z,33.93
2019-04-16T08:35:17.659Z,33.35
2019-04-16T08:37:49.528Z,32.90
2019-04-16T08:40:23.936Z,32.92
2019-04-16T08:42:50.554Z,32.85
2019-04-16T08:45:21.079Z,33.09
2019-04-16T08:48:04.553Z,32.56
2019-04-16T08:50:33.828Z,32.85
2019-04-16T08:53:18.393Z,31.86
2019-04-16T08:55:48.745Z,32.15
2019-04-16T08:58:15.661Z,31.98
2019-04-16T09:01:10.539Z,33.92
2019-04-16T09:03:38.979Z,31.90
2019-04-16T09:06:05.770Z,32.94
2019-04-16T09:08:35.952Z,32.90
2019-04-16T09:11:03.329Z,33.35
2019-04-16T09:13:33.152Z,32.16
2019-04-16T09:16:02.199Z,33.24
2019-04-16T09:18:29.333Z,31.77
2019-04-16T09:20:56.846Z,32.66
2019-04-16T09:23:26.969Z,32.71
2019-04-16T09:25:55.158Z,30.02
2019-04-16T09:28:26.375Z,30.50
2019-04-16T09:30:55.092Z,30.88
2019-04-16T09:33:21.804Z,32.27
2019-04-16T09:35:51.153Z,29.83
2019-04-16T09:38:18.313Z,30.75
2019-04-16T09:40:44.959Z,30.29
2019-04-16T09:43:17.245Z,30.89
2019-04-16T09:45:40.258Z,31.03
2019-04-16T09:48:06.995Z,31.62
2019-04-16T09:50:33.658Z,30.07
2019-04-16T09:53:01.926Z,30.98
2019-04-16T09:55:28.880Z,31.08
2019-04-16T09:57:55.827Z,29.84
2019-04-16T10:00:22.577Z,31.30
2019-04-16T10:02:49.219Z,30.19
2019-04-16T10:05:15.961Z,30.68
2019-04-16T10:07:42.899Z,29.50
2019-04-16T10:10:09.582Z,30.64
2019-04-16T10:12:36.263Z,30.55
2019-04-16T10:15:02.822Z,30.03
2019-04-16T10:17:29.379Z,29.13
2019-04-16T10:19:56.297Z,28.24
2019-04-16T10:22:23.194Z,30.09
2019-04-16T10:24:49.951Z,28.31
2019-04-16T10:27:16.912Z,30.41
2019-04-16T10:29:43.470Z,31.25
2019-04-16T10:32:09.994Z,28.95
2019-04-16T10:34:36.798Z,27.90
2019-04-16T10:37:04.276Z,29.41
2019-04-16T10:39:31.090Z,28.26
2019-04-16T10:41:58.182Z,28.33
2019-04-16T10:44:24.761Z,27.80
2019-04-16T10:46:51.286Z,27.92
2019-04-16T10:49:18.269Z,28.06
2019-04-16T10:51:44.965Z,27.74
2019-04-16T10:54:11.517Z,26.31
2019-04-16T10:56:38.123Z,29.39
2019-04-16T10:59:05.174Z,28.35
2019-04-16T11:01:35.017Z,29.66
2019-04-16T11:04:00.113Z,29.18
2019-04-16T11:06:26.819Z,29.04
2019-04-16T11:08:55.416Z,28.66
2019-04-16T11:11:22.450Z,29.24
2019-04-16T11:13:59.653Z,27.40
2019-04-16T11:19:16.524Z,27.67
2019-04-16T11:21:44.396Z,27.17
2019-04-16T11:24:11.193Z,28.12
2019-04-16T11:26:38.108Z,26.75
2019-04-16T11:29:05.336Z,27.81
2019-04-16T11:31:33.692Z,28.52
2019-04-16T11:34:00.400Z,27.09
2019-04-16T11:36:30.552Z,28.89
2019-04-16T11:41:40.187Z,28.49
2019-04-16T11:44:15.483Z,25.96
2019-04-16T11:46:44.875Z,26.19
2019-04-16T11:49:15.018Z,27.40
2019-04-16T11:51:41.749Z,28.68
2019-04-16T11:54:12.470Z,27.61
2019-04-16T11:56:39.742Z,27.93
2019-04-16T11:59:06.659Z,26.85
2019-04-16T12:01:33.353Z,28.11
2019-04-16T12:03:59.981Z,27.91
2019-04-16T12:06:28.621Z,27.36
2019-04-16T12:08:56.221Z,26.46
2019-04-16T12:11:23.819Z,27.78
2019-04-16T12:13:50.798Z,26.45
2019-04-16T12:16:17.689Z,26.36
2019-04-16T12:18:44.540Z,26.80
2019-04-16T12:21:11.266Z,26.20
2019-04-16T12:23:38.889Z,26.34
2019-04-16T12:26:08.891Z,26.68
2019-04-16T12:28:33.990Z,27.74
2019-04-16T12:31:00.812Z,26.31
2019-04-16T12:33:27.456Z,25.50
2019-04-16T12:35:54.395Z,26.34
2019-04-16T12:38:21.394Z,27.42
2019-04-16T12:40:48.141Z,26.90
2019-04-16T12:43:16.254Z,27.28
2019-04-16T12:45:43.466Z,28.79
2019-04-16T12:48:10.226Z,26.60
2019-04-16T12:50:37.501Z,27.09
2019-04-16T12:53:04.430Z,26.91
2019-04-16T12:55:32.824Z,26.91
2019-04-16T12:57:59.402Z,25.35
2019-04-16T13:00:31.295Z,26.33
2019-04-16T13:02:54.573Z,26.28
2019-04-16T13:05:21.826Z,26.94
2019-04-16T13:07:48.439Z,27.34
2019-04-16T13:10:16.320Z,26.67
2019-04-16T13:12:43.243Z,26.33
2019-04-16T13:15:09.888Z,25.50
2019-04-16T13:17:36.631Z,25.84
2019-04-16T13:20:03.472Z,25.84
2019-04-16T13:22:30.118Z,26.95
2019-04-16T13:24:57.087Z,26.50
2019-04-16T13:27:23.693Z,26.63
2019-04-16T13:29:50.383Z,27.28
2019-04-16T13:32:18.253Z,26.83
2019-04-16T13:34:45.135Z,27.31
2019-04-16T13:37:12.047Z,26.68
2019-04-16T13:39:40.366Z,26.76
2019-04-16T13:42:07.208Z,26.92
2019-04-16T13:44:34.089Z,27.46
2019-04-16T13:47:03.596Z,26.35
2019-04-16T13:49:31.685Z,27.74
2019-04-16T13:52:00.618Z,28.07
2019-04-16T13:56:59.582Z,27.39
2019-04-16T13:59:31.033Z,27.13
2019-04-16T14:01:59.077Z,25.68
2019-04-16T14:04:31.526Z,27.23
2019-04-16T14:07:00.420Z,26.51
2019-04-16T14:09:29.715Z,26.49
2019-04-16T14:12:03.903Z,26.20
2019-04-16T14:14:27.956Z,26.46
2019-04-16T14:17:09.689Z,27.82
2019-04-16T14:19:37.997Z,26.58
2019-04-16T14:22:21.795Z,25.66
2019-04-16T14:24:45.939Z,26.56
2019-04-16T14:27:14.456Z,26.14
2019-04-16T14:29:44.312Z,26.07
2019-04-16T14:32:10.820Z,27.04
2019-04-16T14:34:40.612Z,26.66
2019-04-16T14:37:09.861Z,26.68
2019-04-16T14:39:36.422Z,26.62
2019-04-16T14:42:05.933Z,27.51
2019-04-16T14:44:34.616Z,26.15
2019-04-16T14:47:02.100Z,27.65
2019-04-16T14:49:32.271Z,27.20
2019-04-16T14:52:02.050Z,26.86
2019-04-16T14:54:32.224Z,28.04
2019-04-16T14:57:01.588Z,28.27
2019-04-16T14:59:35.217Z,27.05
2019-04-16T15:01:59.008Z,27.19
2019-04-16T15:04:30.101Z,27.19
2019-04-16T15:06:58.018Z,26.05
2019-04-16T15:09:24.945Z,26.89
2019-04-16T15:11:52.411Z,27.07
2019-04-16T15:14:23.409Z,26.57
2019-04-16T15:16:51.459Z,26.63
2019-04-16T15:19:20.356Z,26.60
2019-04-16T15:24:34.192Z,28.51
2019-04-16T15:27:01.163Z,27.65
2019-04-16T15:29:29.827Z,27.53
2019-04-16T15:31:57.445Z,26.96
2019-04-16T15:34:24.734Z,27.61
2019-04-16T15:36:55.108Z,27.47
2019-04-16T15:39:20.677Z,27.38
2019-04-16T15:44:45.512Z,28.85
2019-04-16T15:47:14.046Z,28.53
2019-04-16T15:49:40.856Z,28.41
2019-04-16T15:52:09.915Z,30.00
2019-04-16T15:54:36.262Z,28.64
2019-04-16T15:57:02.990Z,28.32
2019-04-16T15:59:29.974Z,28.48
2019-04-16T16:01:56.919Z,29.69
2019-04-16T16:04:23.705Z,29.47
2019-04-16T16:06:52.390Z,30.06
2019-04-16T16:09:19.546Z,30.00
2019-04-16T16:11:48.011Z,29.28
2019-04-16T16:14:14.922Z,30.39
2019-04-16T16:16:42.402Z,29.41
2019-04-16T16:19:11.978Z,28.15
2019-04-16T16:21:38.063Z,28.41
2019-04-16T16:24:07.559Z,28.15
2019-04-16T16:26:32.924Z,28.22
2019-04-16T16:28:59.507Z,28.36
2019-04-16T16:31:26.870Z,28.45
2019-04-16T16:33:54.036Z,28.73
2019-04-16T16:36:21.279Z,29.17
2019-04-16T16:38:49.141Z,28.63
2019-04-16T16:41:16.751Z,29.37
2019-04-16T16:43:43.624Z,29.37
2019-04-16T16:46:10.512Z,29.13
2019-04-16T16:48:37.026Z,28.65
2019-04-16T16:51:03.565Z,29.12
2019-04-16T16:53:30.133Z,28.28
2019-04-16T16:55:56.667Z,27.28
2019-04-16T16:58:23.222Z,27.19
2019-04-16T17:00:49.746Z,27.77
2019-04-16T17:03:16.609Z,27.94
2019-04-16T17:05:43.439Z,28.77
2019-04-16T17:08:10.352Z,29.17
2019-04-16T17:10:37.033Z,29.87
2019-04-16T17:13:07.011Z,30.04
2019-04-16T17:15:33.877Z,30.47
2019-04-16T17:18:01.066Z,31.27
2019-04-16T17:20:27.863Z,31.68
2019-04-16T17:22:54.392Z,32.44
2019-04-16T17:25:35.596Z,32.74
2019-04-16T17:27:52.036Z,32.83
2019-04-16T17:30:19.521Z,33.39
2019-04-16T17:32:46.034Z,34.05
2019-04-16T17:35:15.574Z,34.27
2019-04-16T17:37:41.190Z,34.90
2019-04-16T17:40:08.133Z,35.42
2019-04-16T17:42:37.625Z,34.59
2019-04-16T17:45:03.372Z,35.50
2019-04-16T17:47:32.448Z,36.73
2019-04-16T17:50:03.986Z,36.48
2019-04-16T17:52:30.723Z,36.52
2019-04-16T17:54:57.456Z,37.01
2019-04-16T17:57:28.983Z,37.29
2019-04-16T17:59:54.558Z,37.52
2019-04-16T18:02:21.162Z,38.20
2019-04-16T18:04:47.913Z,39.23
2019-04-16T18:07:16.873Z,39.11
2019-04-16T18:09:43.860Z,40.02
2019-04-16T18:12:12.712Z,40.47
2019-04-16T18:17:26.662Z,40.79
2019-04-16T18:19:53.050Z,41.25
2019-04-16T18:22:23.062Z,41.40
2019-04-16T18:24:52.042Z,41.33
2019-04-16T18:27:18.581Z,41.42
2019-04-16T18:29:46.121Z,41.68
2019-04-16T18:32:15.060Z,41.65
2019-04-16T18:34:46.353Z,41.56
2019-04-16T18:37:14.906Z,41.46
2019-04-16T18:39:43.481Z,42.27
2019-04-16T18:42:12.397Z,42.54
2019-04-16T18:44:39.789Z,42.47
2019-04-16T18:47:10.557Z,42.51
2019-04-16T18:49:37.211Z,42.85
2019-04-16T18:54:53.364Z,42.62
2019-04-16T18:57:20.101Z,42.87
2019-04-16T18:59:47.124Z,43.21
2019-04-16T19:02:20.307Z,43.33
2019-04-16T19:04:50.811Z,43.35
2019-04-16T19:07:18.120Z,43.15
2019-04-16T19:09:47.406Z,43.03
2019-04-16T19:12:16.769Z,43.23
2019-04-16T19:14:45.589Z,43.53
2019-04-16T19:17:16.473Z,43.64
2019-04-16T19:19:48.365Z,43.65
2019-04-16T19:22:18.440Z,43.77
2019-04-16T19:24:45.217Z,43.95
2019-04-16T19:29:59.349Z,44.61
2019-04-16T19:32:30.173Z,44.94
2019-04-16T19:35:09.328Z,45.46
2019-04-16T19:37:29.681Z,45.45
2019-04-16T19:40:00.507Z,45.48
2019-04-16T19:42:28.798Z,45.63
2019-04-16T19:44:59.461Z,45.64
2019-04-16T19:47:27.913Z,46.07
2019-04-16T19:49:56.487Z,46.65
2019-04-16T19:52:25.990Z,47.05
2019-04-16T19:54:53.104Z,47.02
2019-04-16T19:57:23.277Z,47.55
2019-04-16T19:59:52.778Z,47.41
2019-04-16T20:02:21.362Z,47.66
2019-04-16T20:04:50.761Z,47.49
2019-04-16T20:07:17.585Z,47.51
2019-04-16T20:09:45.234Z,47.43
2019-04-16T20:12:14.495Z,47.53
2019-04-16T20:14:44.514Z,47.16
2019-04-16T20:17:11.538Z,47.21
2019-04-16T20:19:40.964Z,47.11
2019-04-16T20:22:11.677Z,47.76
2019-04-16T20:24:43.116Z,48.43
2019-04-16T20:27:13.380Z,48.33
2019-04-16T20:29:43.470Z,48.63
2019-04-16T20:32:17.833Z,48.65
2019-04-16T20:34:46.285Z,49.06
2019-04-16T20:37:16.100Z,49.18
2019-04-16T20:39:44.898Z,49.63
2019-04-16T20:42:15.254Z,49.76
2019-04-16T20:44:58.008Z,49.78
2019-04-16T20:47:26.408Z,49.99
2019-04-16T20:49:53.383Z,49.69
2019-04-16T20:52:23.296Z,49.79
2019-04-16T20:54:54.633Z,49.60
2019-04-16T20:57:25.702Z,49.43
2019-04-16T20:59:53.012Z,49.49
2019-04-16T21:02:19.910Z,49.89
2019-04-16T21:04:47.417Z,49.76
2019-04-16T21:07:17.965Z,49.54
2019-04-16T21:09:45.538Z,49.80
2019-04-16T21:12:16.836Z,50.51
2019-04-16T21:14:47.154Z,50.38
2019-04-16T21:17:17.261Z,50.48
2019-04-16T21:19:47.599Z,50.33
2019-04-16T21:22:14.611Z,50.52
2019-04-16T21:24:42.562Z,50.37
2019-04-16T21:27:10.729Z,50.37
2019-04-16T21:29:39.169Z,50.44
2019-04-16T21:32:09.841Z,50.38
2019-04-16T21:34:39.460Z,50.44
2019-04-16T21:37:09.602Z,50.96
2019-04-16T21:39:35.727Z,51.07
2019-04-16T21:42:06.151Z,51.37
2019-04-16T21:44:36.550Z,51.65
2019-04-16T21:47:03.295Z,51.90
2019-04-16T21:49:38.426Z,52.43
2019-04-16T21:51:58.354Z,52.25
2019-04-16T21:54:26.820Z,52.12
2019-04-16T21:56:54.877Z,52.58
2019-04-16T21:59:22.098Z,52.24
2019-04-16T22:01:48.687Z,52.23
2019-04-16T22:04:15.420Z,52.21
2019-04-16T22:06:42.914Z,52.43
2019-04-16T22:09:09.588Z,52.73
2019-04-16T22:14:09.065Z,52.15
2019-04-16T22:16:35.685Z,52.20
2019-04-16T22:19:02.320Z,52.41
2019-04-16T22:21:29.270Z,52.51
2019-04-16T22:23:55.953Z,52.61
2019-04-16T22:26:22.561Z,52.57
2019-04-16T22:28:49.234Z,52.31
2019-04-16T22:31:15.899Z,52.10
2019-04-16T22:33:42.498Z,52.56
2019-04-16T22:36:09.577Z,53.07
2019-04-16T22:38:36.479Z,53.29
2019-04-16T22:41:03.119Z,53.77
2019-04-16T22:43:29.731Z,53.90
2019-04-16T22:45:56.483Z,53.97
2019-04-16T22:48:23.198Z,53.90
2019-04-16T22:50:50.043Z,53.86
2019-04-16T22:53:17.352Z,53.89
2019-04-16T22:55:45.004Z,53.99
2019-04-16T22:58:11.635Z,54.04
2019-04-16T23:00:38.474Z,53.98
2019-04-16T23:03:05.197Z,53.92
2019-04-16T23:05:32.117Z,54.05
2019-04-16T23:07:58.739Z,53.81
2019-04-16T23:10:25.695Z,53.89
2019-04-16T23:12:52.608Z,53.93
2019-04-16T23:15:19.236Z,53.72
2019-04-16T23:17:46.914Z,53.59
2019-04-16T23:20:28.163Z,54.22
2019-04-16T23:22:43.654Z,54.33
2019-04-16T23:25:10.715Z,54.63
2019-04-16T23:27:38.875Z,54.23
2019-04-16T23:30:05.540Z,54.25
2019-04-16T23:32:32.164Z,54.53
2019-04-16T23:34:59.319Z,54.66
2019-04-16T23:37:26.046Z,54.33
2019-04-16T23:39:52.695Z,54.14
2019-04-16T23:42:19.833Z,54.00
2019-04-16T23:44:46.664Z,54.12
2019-04-16T23:47:17.189Z,54.24
2019-04-16T23:52:35.283Z,54.75
2019-04-16T23:55:08.062Z,54.70
2019-04-16T23:57:35.934Z,54.67
